Time;durP1;ratioP1;P1;durP2;ratioP2;P2;SDS_P1;SDS_P2;PMS_P1;PMS_P2;Temp;Humidity;BMP_temperature;BMP_pressure;BME280_temperature;BME280_humidity;BME280_pressure;Samples;Min_cycle;Max_cycle;Signal;HPM_P1;HPM_P2
2022/07/07 00:02:16;;;;;;;3.50;2.25;;;17.10;99.90;;;;;;5014762;28;20084;-76
2022/07/07 00:04:42;;;;;;;3.88;2.00;;;17.10;99.90;;;;;;5014250;28;20018;-76
2022/07/07 00:07:08;;;;;;;4.03;2.05;;;17.10;99.90;;;;;;5014232;28;20033;-76
2022/07/07 00:09:34;;;;;;;5.50;2.35;;;17.10;99.90;;;;;;5014305;28;20030;-76
2022/07/07 00:11:59;;;;;;;4.50;2.20;;;17.10;99.90;;;;;;5014206;28;20072;-77
2022/07/07 00:14:25;;;;;;;2.72;1.95;;;17.00;99.90;;;;;;5013888;28;20418;-77
2022/07/07 00:16:51;;;;;;;3.35;2.45;;;17.10;99.90;;;;;;5013907;28;20530;-77
2022/07/07 00:19:16;;;;;;;6.88;2.30;;;17.00;99.90;;;;;;5014093;28;20061;-76
2022/07/07 00:21:42;;;;;;;4.63;2.30;;;16.90;99.90;;;;;;5010728;28;20026;-77
2022/07/07 00:24:08;;;;;;;4.60;2.00;;;16.90;99.90;;;;;;5002988;28;20030;-76
2022/07/07 00:26:33;;;;;;;5.65;2.08;;;16.80;99.90;;;;;;5013359;28;20038;-76
2022/07/07 00:28:59;;;;;;;7.20;2.10;;;16.80;99.90;;;;;;5012428;28;20080;-78
2022/07/07 00:31:25;;;;;;;6.18;1.88;;;16.70;99.90;;;;;;5013671;28;20702;-77
2022/07/07 00:33:50;;;;;;;4.28;2.13;;;16.70;99.90;;;;;;5013645;28;20037;-77
2022/07/07 00:36:16;;;;;;;5.30;2.30;;;16.70;99.90;;;;;;5013567;28;20034;-77
2022/07/07 00:38:42;;;;;;;4.82;2.22;;;16.70;99.90;;;;;;5013428;28;20029;-78
2022/07/07 00:41:08;;;;;;;4.30;2.00;;;16.70;99.90;;;;;;5013411;28;20033;-77
2022/07/07 00:43:38;;;;;;;3.55;2.30;;;16.60;99.90;;;;;;5013678;28;20108;-77
2022/07/07 00:46:04;;;;;;;5.32;2.30;;;16.60;99.90;;;;;;5012786;28;20772;-78
2022/07/07 00:48:32;;;;;;;4.95;2.20;;;16.60;99.90;;;;;;5013343;28;20423;-77
2022/07/07 00:50:58;;;;;;;4.82;2.03;;;16.60;99.90;;;;;;5013465;28;20041;-77
2022/07/07 00:53:24;;;;;;;6.03;2.55;;;16.60;99.90;;;;;;5011938;28;20049;-78
2022/07/07 00:55:50;;;;;;;5.70;2.35;;;16.50;99.90;;;;;;5013204;28;20053;-78
2022/07/07 00:58:16;;;;;;;4.82;2.10;;;16.50;99.90;;;;;;5012922;28;20120;-78
2022/07/07 01:00:41;;;;;;;3.28;2.17;;;16.40;99.90;;;;;;5012861;28;20108;-78
2022/07/07 01:03:09;;;;;;;5.90;2.47;;;16.40;99.90;;;;;;5012876;28;20026;-78
2022/07/07 01:05:36;;;;;;;8.40;2.40;;;16.30;99.90;;;;;;5012952;28;20054;-77
2022/07/07 01:08:04;;;;;;;3.75;1.90;;;16.30;99.90;;;;;;5012886;28;20034;-78
2022/07/07 01:10:30;;;;;;;4.63;2.20;;;16.20;99.90;;;;;;5012885;28;20497;-78
2022/07/07 01:13:00;;;;;;;4.55;2.17;;;16.20;99.90;;;;;;5011416;28;20069;-78
2022/07/07 01:15:26;;;;;;;6.97;2.33;;;16.10;99.90;;;;;;5012795;28;20403;-77
2022/07/07 01:17:51;;;;;;;8.25;3.38;;;16.10;99.90;;;;;;5012803;28;20038;-77
2022/07/07 01:20:20;;;;;;;3.33;2.40;;;16.00;99.90;;;;;;5012645;28;20030;-77
2022/07/07 01:22:53;;;;;;;6.45;2.30;;;16.00;99.90;;;;;;5007565;28;20030;-78
2022/07/07 01:25:19;;;;;;;5.32;2.60;;;15.90;99.90;;;;;;5010991;28;20054;-78
2022/07/07 01:27:45;;;;;;;6.82;2.20;;;15.90;99.90;;;;;;5012778;28;20034;-77
2022/07/07 01:30:12;;;;;;;4.82;2.13;;;15.90;99.90;;;;;;5011337;28;20038;-77
2022/07/07 01:32:37;;;;;;;7.45;2.50;;;15.80;99.90;;;;;;5012564;28;20040;-78
2022/07/07 01:35:04;;;;;;;4.13;2.00;;;15.80;99.90;;;;;;5012475;28;20108;-77
2022/07/07 01:37:29;;;;;;;5.00;2.45;;;15.80;99.90;;;;;;5012440;28;20030;-77
2022/07/07 01:39:55;;;;;;;6.90;2.20;;;15.70;99.90;;;;;;5012127;28;20044;-77
2022/07/07 01:42:21;;;;;;;4.05;2.40;;;15.70;99.90;;;;;;4997499;28;20113;-77
2022/07/07 01:44:50;;;;;;;4.90;2.30;;;15.60;99.90;;;;;;5011004;28;20028;-77
2022/07/07 01:47:18;;;;;;;4.63;2.42;;;15.60;99.90;;;;;;5010541;28;20367;-77
2022/07/07 01:49:43;;;;;;;4.53;2.63;;;15.60;99.90;;;;;;5012084;28;20471;-77
2022/07/07 01:52:09;;;;;;;4.00;2.17;;;15.50;99.90;;;;;;5012150;28;20084;-78
2022/07/07 01:54:36;;;;;;;3.47;2.00;;;15.50;99.90;;;;;;5012114;28;20128;-77
2022/07/07 01:57:03;;;;;;;4.47;2.40;;;15.40;99.90;;;;;;5011491;28;20113;-78
2022/07/07 01:59:29;;;;;;;4.45;2.50;;;15.40;99.90;;;;;;5011800;28;20038;-77
2022/07/07 02:01:54;;;;;;;8.20;2.97;;;15.40;99.90;;;;;;5011750;28;20084;-77
2022/07/07 02:04:20;;;;;;;5.10;2.63;;;15.40;99.90;;;;;;5011841;28;20022;-77
2022/07/07 02:06:46;;;;;;;5.20;2.25;;;15.40;99.90;;;;;;5011855;28;20030;-77
2022/07/07 02:09:12;;;;;;;5.22;2.53;;;15.30;99.90;;;;;;5011500;28;20471;-77
2022/07/07 02:11:37;;;;;;;7.00;2.40;;;15.30;99.90;;;;;;5011923;28;20041;-77
2022/07/07 02:14:04;;;;;;;5.03;2.50;;;15.30;99.90;;;;;;5011245;28;20038;-77
2022/07/07 02:16:31;;;;;;;4.43;2.45;;;15.30;99.90;;;;;;5011029;28;20097;-77
2022/07/07 02:19:02;;;;;;;3.53;2.60;;;15.30;99.90;;;;;;5010407;28;20041;-77
2022/07/07 02:21:28;;;;;;;4.90;2.40;;;15.20;99.90;;;;;;5009584;28;20022;-77
2022/07/07 02:23:55;;;;;;;5.00;2.30;;;15.20;99.90;;;;;;5007833;28;20026;-77
2022/07/07 02:26:21;;;;;;;5.85;3.03;;;15.20;99.90;;;;;;5011146;28;20064;-77
2022/07/07 02:28:47;;;;;;;6.07;2.40;;;15.20;99.90;;;;;;5011222;28;20040;-77
2022/07/07 02:31:13;;;;;;;5.45;2.70;;;15.20;99.90;;;;;;5011333;28;20030;-77
2022/07/07 02:33:39;;;;;;;6.53;2.60;;;15.10;99.90;;;;;;5011198;28;20045;-77
2022/07/07 02:36:06;;;;;;;3.78;2.40;;;15.10;99.90;;;;;;5005517;28;20108;-77
2022/07/07 02:38:33;;;;;;;4.78;2.30;;;15.10;99.90;;;;;;5011045;28;20034;-77
2022/07/07 02:40:58;;;;;;;6.28;2.35;;;15.10;99.90;;;;;;5010013;28;20060;-77
2022/07/07 02:43:25;;;;;;;4.95;2.63;;;15.10;99.90;;;;;;5011062;28;20101;-77
2022/07/07 02:45:51;;;;;;;4.22;2.55;;;15.10;99.90;;;;;;5011252;28;20819;-78
2022/07/07 02:48:20;;;;;;;4.80;2.45;;;15.10;99.90;;;;;;5009719;28;20025;-78
2022/07/07 02:50:46;;;;;;;3.97;2.50;;;15.20;99.90;;;;;;5011044;28;20360;-77
2022/07/07 02:53:13;;;;;;;5.90;2.83;;;15.20;99.90;;;;;;5010870;28;20065;-78
2022/07/07 02:55:39;;;;;;;5.10;2.50;;;15.10;99.90;;;;;;5009642;28;20030;-77
2022/07/07 02:58:07;;;;;;;4.60;2.47;;;15.10;99.90;;;;;;5011020;28;20088;-77
2022/07/07 03:00:36;;;;;;;3.70;2.40;;;15.10;99.90;;;;;;5010360;28;20038;-77
2022/07/07 03:03:07;;;;;;;3.88;2.75;;;15.10;99.90;;;;;;5010661;28;20037;-77
2022/07/07 03:05:33;;;;;;;7.00;2.45;;;15.00;99.90;;;;;;5010888;28;20026;-77
2022/07/07 03:07:59;;;;;;;6.05;2.47;;;15.10;99.90;;;;;;5010789;28;20159;-77
2022/07/07 03:10:25;;;;;;;3.95;2.40;;;15.00;99.90;;;;;;5010881;28;20030;-77
2022/07/07 03:12:50;;;;;;;5.10;2.70;;;15.00;99.90;;;;;;5009412;28;20034;-77
2022/07/07 03:15:16;;;;;;;6.13;2.40;;;14.90;99.90;;;;;;5010804;28;20037;-77
2022/07/07 03:17:43;;;;;;;5.47;2.40;;;14.90;99.90;;;;;;5009245;28;20084;-77
2022/07/07 03:20:10;;;;;;;5.35;2.60;;;14.90;99.90;;;;;;5011199;28;20026;-77
2022/07/07 03:22:37;;;;;;;5.30;2.50;;;14.80;99.90;;;;;;5001597;28;20035;-77
2022/07/07 03:25:03;;;;;;;7.47;2.67;;;14.80;99.90;;;;;;5010746;28;20116;-77
2022/07/07 03:27:29;;;;;;;5.85;2.55;;;14.80;99.90;;;;;;5010112;28;20479;-77
2022/07/07 03:29:55;;;;;;;7.82;2.75;;;14.80;99.90;;;;;;5010222;28;20095;-78
2022/07/07 03:32:20;;;;;;;5.93;2.80;;;14.80;99.90;;;;;;5010756;28;20049;-77
2022/07/07 03:34:46;;;;;;;6.75;3.25;;;14.80;99.90;;;;;;5010631;28;20041;-77
2022/07/07 03:37:11;;;;;;;4.88;2.70;;;14.80;99.90;;;;;;5009969;28;20038;-77
2022/07/07 03:39:37;;;;;;;8.73;2.88;;;14.80;99.90;;;;;;5010514;28;20097;-77
2022/07/07 03:42:02;;;;;;;7.13;2.90;;;14.70;99.90;;;;;;5010090;28;20050;-77
2022/07/07 03:44:28;;;;;;;6.22;3.17;;;14.70;99.90;;;;;;5010479;28;20392;-77
2022/07/07 03:46:54;;;;;;;5.20;2.90;;;14.70;99.90;;;;;;5010307;28;20098;-77
2022/07/07 03:49:19;;;;;;;6.38;3.55;;;14.70;99.90;;;;;;5010128;28;20076;-77
2022/07/07 03:51:45;;;;;;;6.03;2.65;;;14.70;99.90;;;;;;5009928;28;20113;-77
2022/07/07 03:54:10;;;;;;;4.45;3.08;;;14.70;99.90;;;;;;5009734;28;20057;-77
2022/07/07 03:56:36;;;;;;;6.82;2.72;;;14.70;99.90;;;;;;5010297;28;20416;-77
2022/07/07 03:59:02;;;;;;;6.72;2.58;;;14.70;99.90;;;;;;5010029;28;20113;-77
2022/07/07 04:01:28;;;;;;;6.35;2.67;;;14.70;99.90;;;;;;5009526;28;20030;-77
2022/07/07 04:03:53;;;;;;;5.00;2.53;;;14.80;99.90;;;;;;5009900;28;20049;-78
2022/07/07 04:06:19;;;;;;;6.78;2.72;;;14.70;99.90;;;;;;5010081;28;20111;-78
2022/07/07 04:08:45;;;;;;;9.38;3.35;;;14.70;99.90;;;;;;5010110;28;20156;-78
2022/07/07 04:11:10;;;;;;;6.00;2.40;;;14.80;99.90;;;;;;5010243;28;20058;-78
2022/07/07 04:13:36;;;;;;;5.95;2.65;;;14.80;99.90;;;;;;5010420;28;20694;-76
2022/07/07 04:16:01;;;;;;;6.97;2.60;;;14.80;99.90;;;;;;5009902;28;20061;-75
2022/07/07 04:18:27;;;;;;;5.25;2.65;;;14.80;99.90;;;;;;5010007;28;20062;-75
2022/07/07 04:20:52;;;;;;;4.28;2.78;;;14.80;99.90;;;;;;5009992;28;20025;-75
2022/07/07 04:23:18;;;;;;;4.53;2.75;;;14.80;99.90;;;;;;5002120;28;20081;-76
2022/07/07 04:25:44;;;;;;;5.00;2.70;;;14.80;99.90;;;;;;5005168;28;20048;-78
2022/07/07 04:28:09;;;;;;;5.63;2.70;;;14.80;99.90;;;;;;5003909;28;20467;-78
2022/07/07 04:30:35;;;;;;;4.72;3.50;;;14.80;99.90;;;;;;5007341;28;20052;-75
2022/07/07 04:33:00;;;;;;;4.72;2.72;;;14.80;99.90;;;;;;5009443;28;20033;-76
2022/07/07 04:35:26;;;;;;;5.20;2.55;;;14.80;99.90;;;;;;5009262;28;20382;-76
2022/07/07 04:37:52;;;;;;;5.32;2.55;;;14.80;99.90;;;;;;5007640;28;20498;-76
2022/07/07 04:40:17;;;;;;;5.25;2.42;;;14.90;99.90;;;;;;5011573;28;20034;-78
2022/07/07 04:42:43;;;;;;;4.20;2.70;;;14.90;99.90;;;;;;5012764;28;20032;-78
2022/07/07 04:45:09;;;;;;;6.10;2.70;;;14.90;99.90;;;;;;5012414;28;20169;-79
2022/07/07 04:47:39;;;;;;;5.22;2.83;;;14.90;99.90;;;;;;5010015;28;20087;-79
2022/07/07 04:50:06;;;;;;;7.90;3.05;;;14.90;99.90;;;;;;5012275;28;20038;-79
2022/07/07 04:52:32;;;;;;;7.88;2.85;;;15.00;99.90;;;;;;5012005;28;20033;-79
2022/07/07 04:54:57;;;;;;;6.53;2.50;;;15.00;99.90;;;;;;5012189;28;20095;-79
2022/07/07 04:57:23;;;;;;;4.97;2.95;;;15.10;99.90;;;;;;5008660;28;20061;-70
2022/07/07 04:59:58;;;;;;;4.53;2.40;;;15.10;99.90;;;;;;5011465;28;20080;-70
2022/07/07 05:02:24;;;;;;;5.72;3.13;;;15.10;99.90;;;;;;5013856;28;20049;-69
2022/07/07 05:04:50;;;;;;;7.00;2.33;;;15.10;99.90;;;;;;5011672;28;20026;-69
2022/07/07 05:07:16;;;;;;;5.60;2.58;;;15.20;99.90;;;;;;5008433;28;20363;-69
2022/07/07 05:09:41;;;;;;;4.18;2.75;;;15.20;99.90;;;;;;5011917;28;20029;-76
2022/07/07 05:12:07;;;;;;;4.43;2.42;;;15.20;99.90;;;;;;5009667;28;20387;-76
2022/07/07 05:14:33;;;;;;;5.22;2.60;;;15.20;99.90;;;;;;5010555;28;20545;-76
2022/07/07 05:16:59;;;;;;;4.00;2.17;;;15.20;99.90;;;;;;5008329;28;20173;-77
2022/07/07 05:19:26;;;;;;;5.30;2.47;;;15.20;99.90;;;;;;4998264;28;20010;-77
2022/07/07 05:21:51;;;;;;;4.93;2.50;;;15.30;99.90;;;;;;4998657;28;20022;-76
2022/07/07 05:24:17;;;;;;;5.65;2.95;;;15.30;99.90;;;;;;5009752;28;20029;-76
2022/07/07 05:26:43;;;;;;;3.45;2.30;;;15.30;99.90;;;;;;5010583;28;20026;-76
2022/07/07 05:29:08;;;;;;;6.40;2.50;;;15.30;99.90;;;;;;5011000;28;20037;-76
2022/07/07 05:31:34;;;;;;;4.28;2.33;;;15.40;99.90;;;;;;5011097;28;20033;-76
2022/07/07 05:34:02;;;;;;;5.25;2.42;;;15.40;99.90;;;;;;5011185;28;20038;-76
2022/07/07 05:36:27;;;;;;;4.80;2.22;;;15.40;99.90;;;;;;5008606;28;20064;-77
2022/07/07 05:38:53;;;;;;;5.63;2.63;;;15.50;99.90;;;;;;5008998;28;20112;-77
2022/07/07 05:41:18;;;;;;;5.30;2.58;;;15.60;99.90;;;;;;5008958;28;20034;-76
2022/07/07 05:43:44;;;;;;;6.88;2.40;;;15.60;99.90;;;;;;5008743;28;20042;-71
2022/07/07 05:46:10;;;;;;;6.55;2.00;;;15.70;99.90;;;;;;5009046;28;20026;-76
2022/07/07 05:48:36;;;;;;;5.47;2.33;;;15.70;99.90;;;;;;5009031;28;20828;-76
2022/07/07 05:51:04;;;;;;;4.38;2.40;;;15.80;99.90;;;;;;5008209;28;20061;-76
2022/07/07 05:53:30;;;;;;;11.38;2.20;;;15.80;99.90;;;;;;5008840;28;20063;-76
2022/07/07 05:55:56;;;;;;;5.05;2.47;;;15.90;99.90;;;;;;5007464;28;20128;-76
2022/07/07 05:58:22;;;;;;;8.15;2.22;;;16.00;99.90;;;;;;5007606;28;20116;-76
2022/07/07 06:00:48;;;;;;;7.13;1.90;;;16.10;99.90;;;;;;5007327;28;20451;-76
2022/07/07 06:03:13;;;;;;;6.03;2.40;;;16.20;99.90;;;;;;5007459;28;20118;-76
2022/07/07 06:05:39;;;;;;;6.82;2.10;;;16.30;99.90;;;;;;5008882;28;20126;-76
2022/07/07 06:08:05;;;;;;;6.18;2.55;;;16.30;99.90;;;;;;5008553;28;20506;-76
2022/07/07 06:10:32;;;;;;;4.28;2.20;;;16.40;99.90;;;;;;5007714;28;20041;-75
2022/07/07 06:12:57;;;;;;;6.78;2.42;;;16.40;99.90;;;;;;5006616;28;20037;-76
2022/07/07 06:15:23;;;;;;;4.43;2.25;;;16.50;99.90;;;;;;5007464;28;20084;-76
2022/07/07 06:17:49;;;;;;;3.65;1.73;;;16.50;99.90;;;;;;5006742;28;20053;-76
2022/07/07 06:20:14;;;;;;;3.92;2.00;;;16.60;99.90;;;;;;5006152;28;20033;-76
2022/07/07 06:22:40;;;;;;;5.15;1.90;;;16.70;99.90;;;;;;5004475;28;20032;-75
2022/07/07 06:25:09;;;;;;;4.65;1.85;;;16.60;99.90;;;;;;5001227;28;20509;-77
2022/07/07 06:27:36;;;;;;;4.43;1.98;;;16.70;99.90;;;;;;5002999;28;20052;-77
2022/07/07 06:30:05;;;;;;;6.55;1.92;;;16.70;99.90;;;;;;4997268;28;20034;-77
2022/07/07 06:32:31;;;;;;;6.68;2.50;;;16.70;99.90;;;;;;4992591;28;20088;-76
2022/07/07 06:34:56;;;;;;;5.75;2.00;;;16.70;99.90;;;;;;4995205;28;20041;-76
2022/07/07 06:37:23;;;;;;;4.95;1.90;;;16.70;99.90;;;;;;4998967;28;20709;-76
2022/07/07 06:39:49;;;;;;;5.68;1.70;;;16.70;99.90;;;;;;4993762;28;20124;-76
2022/07/07 06:42:15;;;;;;;6.72;1.73;;;16.70;99.90;;;;;;4996672;28;20102;-76
2022/07/07 06:44:41;;;;;;;2.45;1.60;;;16.70;99.90;;;;;;4999318;28;20073;-76
2022/07/07 06:47:06;;;;;;;4.93;2.03;;;16.70;99.90;;;;;;5005970;28;20026;-76
2022/07/07 06:49:32;;;;;;;3.13;1.60;;;16.80;99.90;;;;;;5007781;28;20045;-76
2022/07/07 06:51:57;;;;;;;7.80;1.77;;;16.90;99.90;;;;;;5005893;28;20095;-76
2022/07/07 06:54:23;;;;;;;5.07;1.70;;;16.90;99.90;;;;;;5007040;28;20041;-76
2022/07/07 06:56:49;;;;;;;4.28;1.55;;;17.00;99.90;;;;;;5006970;28;20394;-76
2022/07/07 06:59:15;;;;;;;5.35;1.60;;;17.10;99.90;;;;;;5007871;28;20113;-78
2022/07/07 07:01:41;;;;;;;2.63;1.50;;;17.20;99.90;;;;;;5008771;28;20018;-76
2022/07/07 07:04:09;;;;;;;5.00;1.52;;;17.30;99.90;;;;;;5003327;28;20509;-76
2022/07/07 07:06:34;;;;;;;4.22;1.70;;;17.50;99.90;;;;;;5007615;28;20025;-76
2022/07/07 07:09:01;;;;;;;4.35;1.70;;;17.50;99.90;;;;;;5007768;28;20029;-76
2022/07/07 07:11:27;;;;;;;3.63;1.60;;;17.50;99.90;;;;;;5006223;28;20046;-77
2022/07/07 07:13:52;;;;;;;6.38;1.60;;;17.40;99.90;;;;;;5004101;28;20045;-76
2022/07/07 07:16:18;;;;;;;6.65;1.75;;;17.30;99.90;;;;;;5007577;28;20030;-76
2022/07/07 07:18:44;;;;;;;3.60;1.50;;;17.30;99.90;;;;;;5006802;28;20032;-76
2022/07/07 07:21:11;;;;;;;4.72;1.60;;;17.20;99.90;;;;;;5004463;28;20026;-76
2022/07/07 07:23:37;;;;;;;4.22;1.45;;;17.20;99.90;;;;;;5005201;28;20867;-76
2022/07/07 07:26:10;;;;;;;5.00;1.45;;;17.20;99.90;;;;;;5005717;28;20393;-77
2022/07/07 07:28:38;;;;;;;5.68;1.83;;;17.20;99.90;;;;;;5000135;28;20041;-76
2022/07/07 07:31:06;;;;;;;3.33;1.67;;;17.30;99.90;;;;;;5004863;28;20029;-78
2022/07/07 07:33:35;;;;;;;4.40;1.38;;;17.40;99.90;;;;;;5001442;28;20025;-76
2022/07/07 07:36:07;;;;;;;4.95;1.70;;;17.40;99.90;;;;;;5006173;28;20029;-78
2022/07/07 07:38:39;;;;;;;5.07;1.60;;;17.50;99.90;;;;;;5006268;28;20091;-78
2022/07/07 07:41:06;;;;;;;2.72;1.50;;;17.60;99.90;;;;;;5006941;28;20022;-78
2022/07/07 07:43:32;;;;;;;6.13;1.83;;;17.70;99.90;;;;;;4995331;28;20030;-78
2022/07/07 07:45:57;;;;;;;5.25;1.50;;;17.70;99.90;;;;;;5007319;28;20083;-78
2022/07/07 07:48:23;;;;;;;4.43;1.70;;;17.80;99.90;;;;;;5006490;28;20033;-78
2022/07/07 07:50:49;;;;;;;6.88;1.70;;;17.90;99.90;;;;;;5005173;28;20455;-79
2022/07/07 07:53:15;;;;;;;4.45;1.55;;;17.90;99.90;;;;;;5005797;28;20034;-78
2022/07/07 07:55:40;;;;;;;5.68;1.60;;;17.90;99.90;;;;;;5003702;28;20378;-78
2022/07/07 07:58:06;;;;;;;3.65;1.50;;;18.00;99.90;;;;;;5005750;28;20035;-78
2022/07/07 08:00:32;;;;;;;5.20;1.52;;;18.00;99.90;;;;;;4998328;28;20057;-78
2022/07/07 08:02:58;;;;;;;6.18;1.80;;;18.10;99.90;;;;;;5007782;28;20475;-78
2022/07/07 08:05:25;;;;;;;4.85;1.67;;;18.20;99.90;;;;;;5009598;28;20075;-79
2022/07/07 08:07:50;;;;;;;3.38;1.40;;;18.20;99.90;;;;;;5009578;28;20050;-78
2022/07/07 08:10:17;;;;;;;2.92;1.50;;;18.50;99.90;;;;;;5008526;28;20080;-78
2022/07/07 08:12:44;;;;;;;3.78;1.67;;;18.60;99.90;;;;;;5008034;28;20042;-78
2022/07/07 08:15:10;;;;;;;4.88;1.50;;;18.70;99.90;;;;;;5009941;28;20038;-78
2022/07/07 08:17:36;;;;;;;2.53;1.60;;;18.70;99.90;;;;;;5010084;28;20034;-78
2022/07/07 08:20:03;;;;;;;4.55;1.75;;;18.80;99.90;;;;;;5011019;28;20030;-78
2022/07/07 08:22:28;;;;;;;4.13;1.30;;;19.00;99.90;;;;;;5008527;28;20052;-78
2022/07/07 08:24:54;;;;;;;3.50;1.55;;;19.10;99.90;;;;;;5010579;28;20069;-78
2022/07/07 08:27:20;;;;;;;6.65;1.45;;;19.20;99.90;;;;;;5010998;28;20096;-78
2022/07/07 08:29:46;;;;;;;5.15;1.75;;;19.60;99.90;;;;;;5011073;28;20056;-78
2022/07/07 08:32:12;;;;;;;4.47;1.50;;;19.60;99.90;;;;;;5009170;28;20025;-78
2022/07/07 08:34:38;;;;;;;4.13;1.50;;;19.60;99.90;;;;;;5010400;28;20022;-78
2022/07/07 08:37:06;;;;;;;5.25;1.45;;;19.70;99.90;;;;;;5010736;28;20022;-78
2022/07/07 08:39:35;;;;;;;5.20;1.40;;;19.70;99.90;;;;;;5002542;28;20049;-77
2022/07/07 08:42:03;;;;;;;3.20;1.30;;;19.90;99.90;;;;;;5011233;28;20189;-78
2022/07/07 08:44:29;;;;;;;6.00;1.50;;;20.00;99.90;;;;;;5010183;28;20093;-78
2022/07/07 08:46:54;;;;;;;3.63;1.65;;;20.00;99.90;;;;;;5009854;28;20037;-77
2022/07/07 08:49:21;;;;;;;4.00;1.17;;;20.10;99.90;;;;;;5011151;28;20021;-77
2022/07/07 08:51:46;;;;;;;3.92;1.40;;;20.10;99.90;;;;;;5009828;28;20413;-78
2022/07/07 08:54:15;;;;;;;5.68;1.40;;;20.10;99.90;;;;;;5010547;28;20018;-77
2022/07/07 08:56:42;;;;;;;4.97;1.20;;;20.20;99.90;;;;;;5009664;28;20056;-78
2022/07/07 08:59:14;;;;;;;5.65;1.35;;;20.30;99.90;;;;;;5008881;28;20044;-79
2022/07/07 09:01:41;;;;;;;3.67;1.73;;;20.30;99.90;;;;;;5010562;28;20068;-79
2022/07/07 09:04:14;;;;;;;5.57;1.33;;;20.30;99.90;;;;;;5009139;28;20105;-78
2022/07/07 09:06:58;;;;;;;3.40;1.15;;;20.10;99.90;;;;;;5000396;28;20036;-79
2022/07/07 09:09:36;;;;;;;4.15;1.58;;;20.00;99.90;;;;;;5009394;28;20406;-79
2022/07/07 09:12:06;;;;;;;3.63;1.63;;;19.90;99.90;;;;;;5010761;28;20109;-79
2022/07/07 09:14:40;;;;;;;6.22;1.40;;;19.60;99.90;;;;;;5010367;28;20128;-79
2022/07/07 09:17:18;;;;;;;3.58;1.30;;;19.20;99.90;;;;;;5009735;28;20034;-78
2022/07/07 09:19:46;;;;;;;4.85;1.50;;;19.10;99.90;;;;;;5010456;28;20025;-78
2022/07/07 09:22:12;;;;;;;5.65;1.80;;;19.00;99.90;;;;;;5005431;28;20042;-78
2022/07/07 09:24:56;;;;;;;4.82;1.70;;;18.90;99.90;;;;;;5009583;28;20110;-79
2022/07/07 09:27:22;;;;;;;6.28;1.83;;;18.80;99.90;;;;;;5009285;28;20570;-80
2022/07/07 09:29:48;;;;;;;8.43;1.52;;;18.80;99.90;;;;;;5009026;28;20045;-79
2022/07/07 09:32:13;;;;;;;6.45;1.67;;;18.80;99.90;;;;;;5009992;28;20100;-79
2022/07/07 09:34:39;;;;;;;3.28;1.60;;;18.80;99.90;;;;;;5009877;28;20121;-79
2022/07/07 09:39:54;;;;;;;5.68;2.40;;;18.90;99.90;;;;;;5010154;28;20045;-80
2022/07/07 09:42:31;;;;;;;5.07;1.63;;;19.00;99.90;;;;;;5009655;28;20026;-80
2022/07/07 09:44:58;;;;;;;4.35;1.58;;;19.00;99.90;;;;;;5015113;28;20033;-80
2022/07/07 09:47:24;;;;;;;6.03;1.80;;;19.10;99.90;;;;;;5009677;28;20026;-80
2022/07/07 09:50:02;;;;;;;3.67;1.38;;;19.30;99.90;;;;;;5009878;28;20467;-80
2022/07/07 09:52:32;;;;;;;5.25;2.03;;;19.40;99.90;;;;;;5009487;28;20026;-79
2022/07/07 09:54:59;;;;;;;5.65;1.70;;;19.40;99.90;;;;;;5009852;28;20057;-80
2022/07/07 09:57:24;;;;;;;5.82;1.80;;;19.40;99.90;;;;;;5009378;28;20018;-79
2022/07/07 09:59:51;;;;;;;4.75;1.60;;;19.30;99.90;;;;;;5009832;28;20462;-79
2022/07/07 10:02:22;;;;;;;5.38;1.65;;;19.10;99.90;;;;;;5009622;28;20427;-78
2022/07/07 10:04:52;;;;;;;3.58;1.23;;;18.90;99.90;;;;;;5009819;28;20077;-78
2022/07/07 10:07:20;;;;;;;4.35;1.50;;;18.70;99.90;;;;;;5008943;28;20124;-78
2022/07/07 10:09:51;;;;;;;4.97;1.48;;;18.60;99.90;;;;;;5009745;28;20029;-78
2022/07/07 10:12:19;;;;;;;2.47;1.50;;;18.50;99.90;;;;;;5009623;28;20111;-78
2022/07/07 10:14:46;;;;;;;4.00;1.50;;;18.50;99.90;;;;;;5009616;28;20025;-77
2022/07/07 10:17:14;;;;;;;5.47;1.50;;;18.50;99.90;;;;;;5009423;28;20018;-78
2022/07/07 10:19:40;;;;;;;5.13;1.40;;;18.40;99.90;;;;;;5009100;28;20030;-78
2022/07/07 10:22:07;;;;;;;7.13;1.80;;;18.50;99.90;;;;;;5005498;28;20089;-79
2022/07/07 10:24:33;;;;;;;4.18;1.60;;;18.50;99.90;;;;;;5001763;28;20046;-79
2022/07/07 10:27:03;;;;;;;5.10;1.52;;;18.60;99.90;;;;;;5009086;28;20025;-80
2022/07/07 10:29:53;;;;;;;3.75;1.40;;;18.70;99.90;;;;;;5019041;28;20381;-81
2022/07/07 10:32:30;;;;;;;8.57;1.85;;;18.80;99.90;;;;;;5009815;28;20031;-77
2022/07/07 10:34:59;;;;;;;4.40;1.40;;;19.00;99.90;;;;;;5011607;28;20033;-79
2022/07/07 10:37:26;;;;;;;3.15;1.45;;;19.10;99.90;;;;;;5011076;28;20026;-79
2022/07/07 10:39:56;;;;;;;5.70;1.60;;;19.40;99.90;;;;;;5011114;28;20038;-79
2022/07/07 10:42:37;;;;;;;3.88;1.48;;;19.60;99.90;;;;;;5011705;28;20026;-79
2022/07/07 10:45:03;;;;;;;3.38;1.33;;;19.90;99.90;;;;;;5011276;28;20053;-79
2022/07/07 10:47:30;;;;;;;8.10;1.63;;;20.10;99.90;;;;;;5011115;28;20482;-79
2022/07/07 10:49:57;;;;;;;4.68;1.60;;;20.10;99.90;;;;;;5011422;28;20093;-80
2022/07/07 10:52:43;;;;;;;4.88;1.67;;;20.10;99.90;;;;;;5011092;28;20037;-79
2022/07/07 10:55:09;;;;;;;3.78;1.52;;;20.10;99.90;;;;;;5011054;28;20455;-79
2022/07/07 10:57:43;;;;;;;4.30;1.90;;;20.00;99.90;;;;;;5011043;28;20116;-79
2022/07/07 11:00:19;;;;;;;3.38;1.73;;;20.10;99.90;;;;;;5010948;28;20029;-85
2022/07/07 11:02:48;;;;;;;4.43;1.60;;;20.30;99.90;;;;;;5020153;28;20041;-78
2022/07/07 11:05:28;;;;;;;1.85;1.30;;;20.30;99.90;;;;;;5011414;28;20155;-79
2022/07/07 11:07:57;;;;;;;2.75;1.30;;;20.30;99.90;;;;;;5009437;28;20392;-80
2022/07/07 11:10:38;;;;;;;5.03;1.50;;;20.20;99.90;;;;;;5010154;28;20022;-78
2022/07/07 11:13:16;;;;;;;4.07;1.40;;;20.30;99.90;;;;;;5010761;28;20104;-79
2022/07/07 11:15:43;;;;;;;3.97;1.30;;;20.50;99.90;;;;;;5005968;28;20236;-78
2022/07/07 11:18:11;;;;;;;4.82;1.50;;;20.50;99.90;;;;;;5010459;28;20424;-78
2022/07/07 11:20:57;;;;;;;5.82;1.45;;;20.60;99.90;;;;;;5010227;28;20097;-78
2022/07/07 11:23:27;;;;;;;4.90;1.55;;;20.40;99.90;;;;;;5006049;28;20022;-79
2022/07/07 11:25:56;;;;;;;5.43;1.42;;;20.30;99.90;;;;;;5004902;28;20061;-78
2022/07/07 11:28:24;;;;;;;5.18;1.40;;;20.30;99.90;;;;;;5009913;28;20052;-78
2022/07/07 11:30:59;;;;;;;2.78;1.33;;;20.20;99.90;;;;;;5008270;28;20064;-79
2022/07/07 11:33:24;;;;;;;3.58;1.70;;;20.20;99.90;;;;;;5004407;28;20493;-71
2022/07/07 11:35:50;;;;;;;3.00;1.35;;;20.10;99.90;;;;;;5007082;28;20047;-71
2022/07/07 11:38:15;;;;;;;3.03;1.30;;;19.90;99.90;;;;;;5011399;28;20117;-73
2022/07/07 11:40:42;;;;;;;3.90;2.13;;;19.80;99.90;;;;;;5013784;28;20105;-73
2022/07/07 11:43:28;;;;;;;3.20;1.33;;;19.80;99.90;;;;;;5013457;28;20088;-73
2022/07/07 11:45:54;;;;;;;3.95;1.30;;;19.60;99.90;;;;;;5028233;28;20065;-73
2022/07/07 11:48:21;;;;;;;4.88;1.52;;;19.50;99.90;;;;;;5013394;28;20053;-73
2022/07/07 11:50:48;;;;;;;6.50;1.73;;;19.30;99.90;;;;;;5017393;28;20028;-73
2022/07/07 11:53:13;;;;;;;5.50;1.80;;;19.10;99.90;;;;;;5017450;28;20022;-73
2022/07/07 11:55:39;;;;;;;6.15;1.73;;;19.10;99.90;;;;;;5017740;28;20035;-73
2022/07/07 11:58:06;;;;;;;4.60;1.40;;;18.90;99.90;;;;;;5016015;28;20103;-72
2022/07/07 12:00:34;;;;;;;5.35;1.70;;;18.90;99.90;;;;;;5014547;28;20030;-74
2022/07/07 12:03:03;;;;;;;4.20;1.60;;;18.80;99.90;;;;;;5012918;28;20038;-75
2022/07/07 12:05:31;;;;;;;7.40;1.40;;;18.70;99.90;;;;;;4998011;28;20054;-75
2022/07/07 12:08:05;;;;;;;4.13;1.50;;;18.70;99.90;;;;;;4997769;28;20026;-75
2022/07/07 12:10:41;;;;;;;4.20;1.47;;;18.70;99.90;;;;;;4997712;28;20109;-75
2022/07/07 12:13:10;;;;;;;5.10;1.60;;;18.70;99.90;;;;;;4997951;28;20033;-76
2022/07/07 12:15:45;;;;;;;2.95;1.40;;;18.70;99.90;;;;;;5013218;28;20118;-75
2022/07/07 12:18:12;;;;;;;8.05;1.80;;;18.80;99.90;;;;;;4998220;28;20029;-75
2022/07/07 12:20:39;;;;;;;9.70;2.22;;;18.70;99.90;;;;;;5017272;28;20025;-75
2022/07/07 12:23:16;;;;;;;4.55;1.80;;;18.70;99.90;;;;;;5015888;28;20026;-75
2022/07/07 12:25:42;;;;;;;2.70;1.70;;;18.70;99.90;;;;;;5016991;28;20394;-75
2022/07/07 12:28:09;;;;;;;7.63;2.15;;;18.80;99.90;;;;;;5016967;28;20034;-76
2022/07/07 12:31:20;;;;;;;6.90;1.90;;;18.80;99.90;;;;;;5016897;28;20133;-75
2022/07/07 12:33:46;;;;;;;4.10;1.92;;;19.00;99.90;;;;;;5014771;28;20034;-75
2022/07/07 12:36:17;;;;;;;5.80;2.00;;;19.20;99.90;;;;;;5016584;28;20071;-75
2022/07/07 12:38:55;;;;;;;4.70;1.80;;;19.30;99.90;;;;;;5015332;28;20029;-74
2022/07/07 12:41:25;;;;;;;7.03;2.50;;;19.60;99.90;;;;;;5015907;28;20038;-74
2022/07/07 12:43:52;;;;;;;6.07;1.70;;;19.90;99.90;;;;;;5017055;28;20101;-75
2022/07/07 12:46:18;;;;;;;7.63;1.60;;;20.10;99.90;;;;;;5016639;28;20143;-75
2022/07/07 12:48:47;;;;;;;6.47;2.03;;;20.40;99.90;;;;;;5017085;28;20110;-74
2022/07/07 12:51:13;;;;;;;7.00;1.73;;;20.70;99.90;;;;;;5016807;28;20030;-75
2022/07/07 12:53:39;;;;;;;10.98;1.88;;;21.20;99.90;;;;;;5015248;28;20505;-74